createdAt,value
2018-09-17T00:21:45.997Z,84.07
2018-09-17T00:24:14.756Z,84.09
2018-09-17T00:26:43.513Z,84.06
2018-09-17T00:29:12.275Z,84.23
2018-09-17T00:31:41.969Z,83.34
2018-09-17T00:34:10.698Z,83.69
2018-09-17T00:36:39.935Z,83.99
2018-09-17T00:39:10.351Z,83.53
2018-09-17T00:41:39.415Z,83.68
2018-09-17T00:44:08.499Z,82.86
2018-09-17T00:46:38.442Z,83.60
2018-09-17T00:49:07.195Z,82.63
2018-09-17T00:51:36.059Z,82.80
2018-09-17T00:54:05.675Z,82.20
2018-09-17T00:56:34.639Z,82.45
2018-09-17T00:59:04.049Z,82.74
2018-09-17T01:01:33.060Z,82.43
2018-09-17T01:04:01.994Z,81.91
2018-09-17T01:06:31.912Z,81.90
2018-09-17T01:09:00.648Z,82.56
2018-09-17T01:11:30.933Z,82.40
2018-09-17T01:13:59.758Z,81.92
2018-09-17T01:16:32.122Z,82.41
2018-09-17T01:19:00.859Z,81.43
2018-09-17T01:21:31.951Z,82.00
2018-09-17T01:24:00.743Z,81.41
2018-09-17T01:26:30.609Z,82.11
2018-09-17T01:28:59.403Z,81.54
2018-09-17T01:31:28.974Z,81.06
2018-09-17T01:33:57.797Z,80.99
2018-09-17T01:36:26.617Z,81.41
2018-09-17T01:38:55.415Z,81.37
2018-09-17T01:41:24.280Z,81.32
2018-09-17T01:43:53.226Z,81.80
2018-09-17T01:46:23.132Z,82.59
2018-09-17T01:48:51.888Z,81.88
2018-09-17T01:51:20.825Z,81.94
2018-09-17T01:53:50.551Z,81.58
2018-09-17T01:56:19.369Z,82.17
2018-09-17T02:13:12.653Z,83.89
2018-09-17T02:15:41.505Z,84.13
2018-09-17T02:18:10.297Z,84.43
2018-09-17T02:20:39.347Z,84.24
2018-09-17T02:23:08.772Z,84.54
2018-09-17T02:25:37.753Z,85.27
2018-09-17T02:28:06.703Z,84.48
2018-09-17T02:30:36.775Z,85.00
2018-09-17T02:33:06.611Z,84.38
2018-09-17T02:35:35.394Z,85.35
2018-09-17T02:38:04.192Z,84.79
2018-09-17T02:40:33.037Z,84.87
2018-09-17T02:43:01.860Z,85.53
2018-09-17T02:45:30.716Z,84.74
2018-09-17T02:48:00.201Z,85.59
2018-09-17T02:50:29.136Z,85.51
2018-09-17T02:52:58.995Z,84.81
2018-09-17T02:55:28.500Z,85.08
2018-09-17T02:57:58.090Z,84.90
2018-09-17T03:00:27.617Z,85.95
2018-09-17T03:02:57.083Z,85.66
2018-09-17T03:05:26.497Z,85.18
2018-09-17T03:07:55.819Z,85.25
2018-09-17T03:10:24.611Z,85.46
2018-09-17T03:12:53.524Z,85.38
2018-09-17T03:15:33.241Z,84.77
2018-09-17T03:18:02.479Z,85.73
2018-09-17T03:20:31.257Z,85.51
2018-09-17T03:23:00.665Z,85.34
2018-09-17T03:25:29.473Z,84.94
2018-09-17T03:27:58.652Z,85.04
2018-09-17T03:30:28.003Z,85.82
2018-09-17T03:32:57.351Z,85.36
2018-09-17T03:35:26.297Z,85.33
2018-09-17T03:37:55.699Z,85.42
2018-09-17T03:40:24.508Z,86.11
2018-09-17T03:42:53.599Z,86.41
2018-09-17T03:45:22.421Z,86.39
2018-09-17T03:47:51.775Z,86.25
2018-09-17T03:50:20.544Z,85.69
2018-09-17T03:52:50.072Z,85.81
2018-09-17T03:55:18.883Z,85.97
2018-09-17T03:57:49.110Z,85.83
2018-09-17T04:00:17.964Z,86.58
2018-09-17T04:02:47.281Z,86.01
2018-09-17T04:05:16.933Z,86.02
2018-09-17T04:07:46.356Z,86.27
2018-09-17T04:10:15.983Z,85.58
2018-09-17T04:12:44.928Z,86.47
2018-09-17T04:15:14.671Z,85.38
2018-09-17T04:17:43.659Z,85.90
2018-09-17T04:20:12.694Z,85.77
2018-09-17T04:22:42.493Z,85.31
2018-09-17T04:25:11.327Z,85.70
2018-09-17T04:27:40.120Z,85.30
2018-09-17T04:30:09.380Z,85.40
2018-09-17T04:32:38.205Z,85.98
2018-09-17T04:35:07.918Z,85.30
2018-09-17T04:37:38.187Z,84.83
2018-09-17T04:40:07.348Z,83.70
2018-09-17T04:42:37.161Z,84.06
2018-09-17T04:45:07.171Z,83.32
2018-09-17T04:47:36.777Z,82.52
2018-09-17T04:50:05.692Z,82.94
2018-09-17T04:52:35.817Z,82.23
2018-09-17T04:55:05.359Z,82.41
2018-09-17T04:57:34.153Z,82.02
2018-09-17T05:00:03.858Z,81.59
2018-09-17T05:02:33.069Z,81.78
2018-09-17T05:05:02.336Z,80.43
2018-09-17T05:07:31.831Z,80.67
2018-09-17T05:10:00.629Z,79.84
2018-09-17T05:12:29.598Z,80.50
2018-09-17T05:14:58.555Z,79.37
2018-09-17T05:17:27.554Z,79.82
2018-09-17T05:19:57.535Z,79.30
2018-09-17T05:22:27.122Z,80.00
2018-09-17T05:24:56.647Z,79.53
2018-09-17T05:27:25.510Z,79.73
2018-09-17T05:29:55.113Z,79.40
2018-09-17T05:32:24.116Z,78.83
2018-09-17T05:34:53.121Z,78.83
2018-09-17T05:37:21.968Z,78.39
2018-09-17T05:39:50.820Z,78.82
2018-09-17T05:42:19.854Z,78.54
2018-09-17T05:44:48.730Z,77.97
2018-09-17T05:47:18.095Z,77.08
2018-09-17T05:49:46.999Z,76.80
2018-09-17T05:52:16.629Z,75.95
2018-09-17T05:54:46.099Z,75.50
2018-09-17T05:57:15.144Z,76.27
2018-09-17T05:59:45.685Z,76.21
2018-09-17T06:02:17.099Z,75.87
2018-09-17T06:04:46.836Z,75.29
2018-09-17T06:07:16.567Z,75.76
2018-09-17T06:09:45.732Z,75.30
2018-09-17T06:12:14.838Z,76.26
2018-09-17T06:14:43.898Z,75.40
2018-09-17T06:17:12.716Z,75.63
2018-09-17T06:19:41.691Z,75.54
2018-09-17T06:22:11.116Z,75.69
2018-09-17T06:24:40.492Z,75.94
2018-09-17T06:27:09.351Z,75.86
2018-09-17T06:29:38.236Z,75.25
2018-09-17T06:32:07.477Z,74.64
2018-09-17T06:34:36.377Z,74.92
2018-09-17T06:37:05.249Z,75.25
2018-09-17T06:39:34.090Z,75.24
2018-09-17T06:42:02.905Z,75.65
2018-09-17T06:44:31.972Z,74.15
2018-09-17T06:47:01.504Z,74.50
2018-09-17T06:49:31.047Z,74.28
2018-09-17T06:52:00.584Z,74.39
2018-09-17T06:54:29.671Z,73.25
2018-09-17T06:56:58.993Z,73.47
2018-09-17T06:59:28.607Z,72.76
2018-09-17T07:01:58.210Z,73.43
2018-09-17T07:04:28.587Z,73.34
2018-09-17T07:06:58.518Z,72.69
2018-09-17T07:09:27.555Z,72.73
2018-09-17T07:11:56.452Z,72.80
2018-09-17T07:14:25.436Z,72.96
2018-09-17T07:16:54.325Z,73.17
2018-09-17T07:19:23.362Z,73.55
2018-09-17T07:21:53.086Z,73.07
2018-09-17T07:24:22.501Z,73.07
2018-09-17T07:26:51.323Z,72.37
2018-09-17T07:29:20.221Z,72.81
2018-09-17T07:31:49.787Z,73.03
2018-09-17T07:34:18.681Z,72.45
2018-09-17T07:36:47.557Z,72.42
2018-09-17T07:39:16.713Z,73.45
2018-09-17T07:41:45.855Z,72.03
2018-09-17T07:44:15.082Z,71.40
2018-09-17T07:46:45.675Z,69.96
2018-09-17T07:49:15.048Z,69.67
2018-09-17T07:51:44.768Z,69.17
2018-09-17T07:54:14.574Z,68.55
2018-09-17T07:56:43.840Z,69.24
2018-09-17T07:59:14.110Z,69.29
2018-09-17T08:01:43.619Z,68.75
2018-09-17T08:04:13.380Z,68.91
2018-09-17T08:06:43.040Z,67.81
2018-09-17T08:09:14.505Z,67.58
2018-09-17T08:11:44.475Z,67.81
2018-09-17T08:14:14.851Z,68.13
2018-09-17T08:16:44.565Z,67.29
2018-09-17T08:19:13.521Z,66.72
2018-09-17T08:21:43.411Z,66.56
2018-09-17T08:24:13.019Z,66.45
2018-09-17T08:26:41.946Z,66.24
2018-09-17T08:29:10.976Z,65.68
2018-09-17T08:31:40.644Z,66.24
2018-09-17T08:34:09.513Z,65.33
2018-09-17T08:36:38.464Z,66.01
2018-09-17T08:39:10.702Z,64.06
2018-09-17T08:41:40.293Z,63.87
2018-09-17T08:44:10.524Z,64.06
2018-09-17T08:46:40.001Z,64.92
2018-09-17T08:49:09.236Z,65.94
2018-09-17T08:51:38.360Z,65.11
2018-09-17T08:54:07.728Z,65.86
2018-09-17T08:56:42.509Z,65.33
2018-09-17T08:59:17.801Z,65.40
2018-09-17T09:01:52.529Z,64.56
2018-09-17T09:04:27.898Z,64.00
2018-09-17T09:07:02.928Z,62.41
2018-09-17T09:09:32.127Z,62.03
2018-09-17T09:12:06.396Z,61.69
2018-09-17T09:14:41.178Z,60.53
2018-09-17T09:17:11.421Z,60.00
2018-09-17T09:19:40.736Z,61.22
2018-09-17T09:22:10.468Z,60.92
2018-09-17T09:24:39.473Z,60.71
2018-09-17T09:27:08.768Z,60.77
2018-09-17T09:29:37.680Z,60.45
2018-09-17T09:32:08.068Z,60.21
2018-09-17T09:34:37.058Z,60.64
2018-09-17T09:37:06.198Z,60.10
2018-09-17T09:39:35.082Z,59.39
2018-09-17T09:42:06.376Z,60.18
2018-09-17T09:44:35.239Z,59.69
2018-09-17T09:47:04.941Z,59.83
2018-09-17T09:49:33.893Z,59.03
2018-09-17T09:52:03.752Z,59.59
2018-09-17T09:54:33.797Z,59.32
2018-09-17T09:57:02.677Z,60.06
2018-09-17T09:59:32.320Z,59.41
2018-09-17T10:02:06.928Z,59.25
2018-09-17T10:04:36.373Z,59.01
2018-09-17T10:07:06.019Z,58.38
2018-09-17T10:09:40.104Z,58.28
2018-09-17T10:12:14.246Z,56.85
2018-09-17T10:14:48.385Z,57.96
2018-09-17T10:17:23.735Z,56.87
2018-09-17T10:19:53.415Z,57.11
2018-09-17T10:22:23.182Z,57.22
2018-09-17T10:24:52.017Z,57.74
2018-09-17T10:27:20.863Z,58.01
2018-09-17T10:29:50.287Z,57.48
2018-09-17T10:32:19.151Z,57.42
2018-09-17T10:34:48.004Z,57.24
2018-09-17T10:37:17.313Z,57.37
2018-09-17T10:39:48.116Z,57.01
2018-09-17T10:42:17.272Z,56.75
2018-09-17T10:44:47.127Z,55.91
2018-09-17T10:47:16.998Z,56.50
2018-09-17T10:49:46.217Z,56.12
2018-09-17T10:52:15.733Z,55.82
2018-09-17T10:54:45.837Z,55.33
2018-09-17T10:57:14.727Z,56.09
2018-09-17T10:59:44.365Z,55.24
2018-09-17T11:02:13.668Z,55.14
2018-09-17T11:04:42.504Z,56.24
2018-09-17T11:07:12.385Z,56.22
2018-09-17T11:09:41.777Z,55.16
2018-09-17T11:12:10.614Z,53.90
2018-09-17T11:14:39.414Z,53.54
2018-09-17T11:17:08.365Z,52.79
2018-09-17T11:19:37.251Z,52.24
2018-09-17T11:22:07.004Z,52.89
2018-09-17T11:24:35.785Z,52.31
2018-09-17T11:27:04.612Z,51.36
2018-09-17T11:29:33.499Z,52.64
2018-09-17T11:32:03.397Z,51.06
2018-09-17T11:34:32.243Z,51.40
2018-09-17T11:37:01.712Z,51.17
2018-09-17T11:39:30.567Z,50.18
2018-09-17T11:41:59.580Z,48.71
2018-09-17T11:44:31.221Z,49.56
2018-09-17T11:47:01.214Z,49.98
2018-09-17T11:49:29.981Z,48.64
2018-09-17T11:51:59.639Z,48.54
2018-09-17T11:54:29.220Z,48.64
2018-09-17T11:56:58.081Z,48.37
2018-09-17T11:59:27.623Z,49.69
2018-09-17T12:02:02.922Z,48.04
2018-09-17T12:04:32.897Z,48.20
2018-09-17T12:07:07.296Z,48.31
2018-09-17T12:09:36.799Z,48.29
2018-09-17T12:12:05.686Z,47.66
2018-09-17T12:14:34.604Z,47.65
2018-09-17T12:17:03.437Z,46.59
2018-09-17T12:19:32.307Z,47.30
2018-09-17T12:22:01.713Z,47.21
2018-09-17T12:24:30.552Z,46.60
2018-09-17T12:26:59.677Z,46.56
2018-09-17T12:29:29.442Z,48.15
2018-09-17T12:31:59.116Z,47.22
2018-09-17T12:34:28.323Z,47.56
2018-09-17T12:36:58.149Z,48.28
2018-09-17T12:39:27.275Z,47.87
2018-09-17T12:41:57.281Z,47.36
2018-09-17T12:44:26.103Z,48.19
2018-09-17T12:46:55.800Z,47.52
2018-09-17T12:49:24.760Z,47.31
2018-09-17T12:51:54.447Z,47.15
2018-09-17T12:54:24.157Z,46.58
2018-09-17T12:56:52.994Z,46.91
2018-09-17T12:59:22.473Z,47.37
2018-09-17T13:01:52.077Z,46.69
2018-09-17T13:04:20.957Z,46.45
2018-09-17T13:06:50.362Z,47.50
2018-09-17T13:09:19.991Z,47.52
2018-09-17T13:11:48.905Z,47.90
2018-09-17T13:14:18.147Z,47.54
2018-09-17T13:16:47.276Z,47.83
2018-09-17T13:19:16.366Z,47.72
2018-09-17T13:21:46.057Z,47.62
2018-09-17T13:24:14.903Z,48.05
2018-09-17T13:26:43.812Z,47.13
2018-09-17T13:29:12.683Z,47.97
2018-09-17T13:31:42.257Z,47.62
2018-09-17T13:34:11.832Z,47.35
2018-09-17T13:36:40.691Z,47.97
2018-09-17T13:39:09.597Z,48.83
2018-09-17T13:41:38.815Z,47.44
2018-09-17T13:44:07.687Z,48.20
2018-09-17T13:46:37.174Z,47.88
2018-09-17T13:49:06.196Z,47.64
2018-09-17T13:51:35.161Z,47.71
2018-09-17T13:54:04.791Z,46.73
2018-09-17T13:56:34.371Z,47.66
2018-09-17T13:59:03.770Z,47.47
2018-09-17T14:01:33.146Z,48.25
2018-09-17T14:04:02.080Z,48.10
2018-09-17T14:06:31.787Z,48.41
2018-09-17T14:09:01.307Z,48.45
2018-09-17T14:11:30.214Z,48.77
2018-09-17T14:13:59.104Z,49.03
2018-09-17T14:16:34.320Z,49.82
2018-09-17T14:19:03.396Z,49.76
2018-09-17T14:21:32.792Z,50.51
2018-09-17T14:24:01.620Z,49.65
2018-09-17T14:26:30.549Z,50.10
2018-09-17T14:28:59.643Z,50.27
2018-09-17T14:31:34.476Z,49.66
2018-09-17T14:34:03.319Z,48.23
2018-09-17T14:36:32.177Z,47.73
2018-09-17T14:39:01.025Z,48.39
2018-09-17T14:41:30.252Z,48.59
2018-09-17T14:43:59.164Z,48.04
2018-09-17T14:46:28.849Z,48.38
2018-09-17T14:48:57.739Z,49.15
2018-09-17T14:51:26.661Z,48.64
2018-09-17T14:53:56.259Z,48.07
2018-09-17T14:56:25.965Z,49.10
2018-09-17T14:58:55.356Z,48.46
2018-09-17T15:01:24.915Z,47.74
2018-09-17T15:03:53.852Z,48.85
2018-09-17T15:06:23.166Z,48.44
2018-09-17T15:08:52.613Z,48.61
2018-09-17T15:11:21.317Z,49.30
2018-09-17T15:13:50.248Z,49.06
2018-09-17T15:16:19.196Z,49.54
2018-09-17T15:18:48.617Z,49.64
2018-09-17T15:21:17.938Z,48.72
2018-09-17T15:23:47.546Z,48.76
2018-09-17T15:26:16.782Z,48.80
2018-09-17T15:28:46.912Z,49.07
2018-09-17T15:31:17.624Z,50.36
2018-09-17T15:33:46.544Z,50.54
2018-09-17T15:36:15.992Z,50.12
2018-09-17T15:38:44.868Z,50.32
2018-09-17T15:41:13.768Z,50.14
2018-09-17T15:43:42.594Z,49.88
2018-09-17T15:46:12.335Z,50.74
2018-09-17T15:48:41.152Z,50.05
2018-09-17T15:51:09.965Z,50.36
2018-09-17T15:53:39.209Z,50.84
2018-09-17T15:56:09.885Z,50.26
2018-09-17T15:58:40.054Z,50.67
2018-09-17T16:01:09.419Z,50.60
2018-09-17T16:03:38.246Z,50.36
2018-09-17T16:06:07.754Z,50.53
2018-09-17T16:08:36.629Z,50.46
2018-09-17T16:11:06.027Z,51.39
2018-09-17T16:13:34.936Z,50.84
2018-09-17T16:16:03.745Z,50.73
2018-09-17T16:18:32.613Z,51.71
2018-09-17T16:21:01.677Z,51.47
2018-09-17T16:23:31.123Z,51.79
2018-09-17T16:26:00.626Z,52.43
2018-09-17T16:28:29.573Z,52.98
2018-09-17T16:30:59.237Z,52.65
2018-09-17T16:33:28.125Z,53.57
2018-09-17T16:35:56.887Z,53.28
2018-09-17T16:38:25.732Z,53.80
2018-09-17T16:40:54.658Z,54.54
2018-09-17T16:43:23.485Z,54.77
2018-09-17T16:45:52.363Z,54.46
2018-09-17T16:48:22.056Z,54.77
2018-09-17T16:50:50.919Z,55.24
2018-09-17T16:53:20.588Z,55.15
2018-09-17T16:55:50.182Z,55.10
2018-09-17T16:58:19.688Z,55.39
2018-09-17T17:00:49.068Z,55.92
2018-09-17T17:03:18.189Z,55.50
2018-09-17T17:05:48.361Z,55.98
2018-09-17T17:08:17.614Z,56.07
2018-09-17T17:10:47.115Z,55.93
2018-09-17T17:13:16.115Z,55.21
2018-09-17T17:15:50.269Z,55.44
2018-09-17T17:18:20.525Z,55.62
2018-09-17T17:20:49.443Z,56.44
2018-09-17T17:23:19.041Z,56.07
2018-09-17T17:25:48.778Z,56.10
2018-09-17T17:28:18.110Z,56.68
2018-09-17T17:30:48.039Z,56.88
2018-09-17T17:33:17.037Z,56.59
2018-09-17T17:35:46.540Z,57.23
2018-09-17T17:38:15.669Z,57.08
2018-09-17T17:40:45.105Z,57.11
2018-09-17T17:43:14.884Z,57.57
2018-09-17T17:45:43.811Z,57.82
2018-09-17T17:48:13.433Z,57.96
2018-09-17T17:50:42.220Z,57.65
2018-09-17T17:53:11.464Z,58.32
2018-09-17T17:55:40.796Z,58.16
2018-09-17T17:58:10.287Z,57.93
2018-09-17T18:00:39.898Z,58.40
2018-09-17T18:03:09.164Z,59.02
2018-09-17T18:05:38.515Z,58.58
2018-09-17T18:08:07.296Z,58.96
2018-09-17T18:10:36.838Z,59.49
2018-09-17T18:13:05.699Z,59.53
2018-09-17T18:15:34.526Z,59.04
2018-09-17T18:18:03.336Z,59.45
2018-09-17T18:20:32.537Z,59.62
2018-09-17T18:23:02.136Z,60.50
2018-09-17T18:25:30.920Z,59.84
2018-09-17T18:27:59.928Z,59.62
2018-09-17T18:30:29.617Z,60.02
2018-09-17T18:32:58.888Z,60.66
2018-09-17T18:35:28.392Z,59.96
2018-09-17T18:37:57.583Z,60.26
2018-09-17T18:40:26.400Z,61.30
2018-09-17T18:42:55.553Z,61.12
2018-09-17T18:45:24.394Z,61.27
2018-09-17T18:47:53.962Z,61.44
2018-09-17T18:50:22.721Z,61.49
2018-09-17T18:52:52.108Z,61.46
2018-09-17T18:55:21.505Z,61.87
2018-09-17T18:57:50.784Z,61.94
2018-09-17T19:00:19.722Z,61.86
2018-09-17T19:02:49.236Z,62.92
2018-09-17T19:05:18.589Z,62.42
2018-09-17T19:07:48.289Z,63.34
2018-09-17T19:10:18.295Z,62.92
2018-09-17T19:12:47.558Z,63.37
2018-09-17T19:15:22.027Z,63.83
2018-09-17T19:17:51.410Z,63.24
2018-09-17T19:20:20.325Z,63.49
2018-09-17T19:22:54.840Z,63.60
2018-09-17T19:25:23.641Z,63.40
2018-09-17T19:27:57.722Z,63.26
2018-09-17T19:30:27.496Z,63.89
2018-09-17T19:32:56.970Z,64.04
2018-09-17T19:35:25.754Z,64.30
2018-09-17T19:37:59.617Z,63.74
2018-09-17T19:40:28.789Z,64.50
2018-09-17T19:42:57.616Z,64.22
2018-09-17T19:45:31.509Z,64.67
2018-09-17T19:48:02.249Z,64.94
2018-09-17T19:50:36.167Z,64.83
2018-09-17T19:53:05.691Z,64.71
2018-09-17T19:55:35.101Z,65.71
2018-09-17T19:58:10.062Z,65.35
2018-09-17T20:00:39.005Z,65.26
2018-09-17T20:03:08.909Z,65.30
2018-09-17T20:05:43.013Z,65.63
2018-09-17T20:08:12.657Z,65.86
2018-09-17T20:10:42.000Z,65.78
2018-09-17T20:13:10.805Z,65.18
2018-09-17T20:15:40.367Z,65.32
2018-09-17T20:18:09.157Z,65.39
2018-09-17T20:20:38.018Z,65.08
2018-09-17T20:23:07.528Z,64.89
2018-09-17T20:25:36.305Z,65.78
2018-09-17T20:28:05.052Z,65.48
2018-09-17T20:30:34.674Z,65.22
2018-09-17T20:33:03.638Z,66.12
2018-09-17T20:35:32.518Z,65.52
2018-09-17T20:38:01.379Z,65.99
2018-09-17T20:40:30.343Z,65.85
2018-09-17T20:42:59.602Z,66.30
2018-09-17T20:45:28.692Z,66.26
2018-09-17T20:47:58.231Z,66.25
2018-09-17T20:50:27.004Z,65.74
2018-09-17T20:52:56.248Z,66.25
2018-09-17T20:55:25.640Z,65.70
2018-09-17T20:57:54.887Z,65.74
2018-09-17T21:00:23.692Z,66.34
2018-09-17T21:02:53.136Z,66.41
2018-09-17T21:05:21.903Z,65.90
2018-09-17T21:07:51.465Z,66.34
2018-09-17T21:10:20.625Z,66.71
2018-09-17T21:12:49.521Z,67.06
2018-09-17T21:15:18.947Z,66.17
2018-09-17T21:17:48.111Z,66.19
2018-09-17T21:20:17.149Z,66.68
2018-09-17T21:22:47.052Z,66.72
2018-09-17T21:25:16.090Z,66.59
2018-09-17T21:27:45.022Z,66.94
2018-09-17T21:30:28.803Z,66.52
2018-09-17T21:32:57.660Z,67.02
2018-09-17T21:35:26.436Z,67.48
2018-09-17T21:37:55.511Z,66.80
2018-09-17T21:40:24.694Z,66.71
2018-09-17T21:43:16.348Z,67.62
2018-09-17T21:45:46.795Z,67.25
2018-09-17T21:48:16.491Z,67.17
2018-09-17T21:50:45.507Z,67.11
2018-09-17T21:53:15.424Z,67.64
2018-09-17T21:55:45.596Z,67.30
2018-09-17T21:58:14.981Z,67.62
2018-09-17T22:00:51.289Z,67.20
2018-09-17T22:03:20.044Z,66.91
2018-09-17T22:05:49.519Z,67.59
2018-09-17T22:08:18.327Z,67.82
2018-09-17T22:10:48.954Z,68.24
2018-09-17T22:13:18.688Z,68.02
2018-09-17T22:15:47.783Z,68.46
2018-09-17T22:18:16.779Z,68.12
2018-09-17T22:20:45.851Z,68.08
2018-09-17T22:23:15.579Z,68.03
2018-09-17T22:25:44.613Z,68.46
2018-09-17T22:28:13.428Z,69.24
2018-09-17T22:30:43.111Z,68.79
2018-09-17T22:33:11.912Z,69.60
2018-09-17T22:35:40.721Z,68.93
2018-09-17T22:38:09.535Z,69.29
2018-09-17T22:40:38.326Z,69.29
2018-09-17T22:43:07.399Z,69.40
2018-09-17T22:45:36.263Z,69.43
2018-09-17T22:48:05.808Z,69.17
2018-09-17T22:50:34.612Z,69.12
2018-09-17T22:53:03.946Z,69.49
2018-09-17T22:55:33.313Z,69.28
2018-09-17T22:58:02.984Z,69.58
2018-09-17T23:00:31.812Z,69.91
2018-09-17T23:03:01.432Z,69.45
2018-09-17T23:05:30.431Z,70.41
2018-09-17T23:08:00.001Z,70.29
2018-09-17T23:10:29.319Z,69.74
2018-09-17T23:12:58.246Z,69.99
2018-09-17T23:15:27.063Z,70.12
2018-09-17T23:17:55.880Z,70.33
2018-09-17T23:20:24.665Z,70.37
2018-09-17T23:22:53.939Z,70.77
2018-09-17T23:25:22.737Z,70.56
2018-09-17T23:27:52.235Z,70.47
2018-09-17T23:30:21.456Z,70.98
2018-09-17T23:32:50.326Z,71.01
2018-09-17T23:35:19.167Z,71.23
2018-09-17T23:37:48.261Z,70.97
2018-09-17T23:40:17.352Z,70.97
2018-09-17T23:42:47.256Z,70.70
2018-09-17T23:45:16.085Z,71.27
2018-09-17T23:47:45.712Z,71.55
2018-09-17T23:50:14.579Z,71.08
2018-09-17T23:52:44.145Z,71.14
2018-09-17T23:55:12.947Z,71.85
2018-09-17T23:57:43.019Z,71.82
